createdAt,value
2022-09-14T00:04:04.190Z,77.97
2022-09-14T00:09:15.052Z,78.07
2022-09-14T00:14:23.166Z,78.13
2022-09-14T00:19:30.710Z,78.15
2022-09-14T00:24:37.778Z,78.21
2022-09-14T00:29:44.839Z,78.28
2022-09-14T00:34:52.219Z,78.34
2022-09-14T00:39:59.407Z,78.44
2022-09-14T00:45:14.949Z,78.50
2022-09-14T00:50:22.805Z,78.56
2022-09-14T00:55:29.755Z,78.72
2022-09-14T01:00:36.929Z,78.92
2022-09-14T01:06:03.186Z,79.11
2022-09-14T01:11:23.455Z,79.18
2022-09-14T01:16:38.918Z,79.39
2022-09-14T01:21:48.992Z,79.49
2022-09-14T01:27:27.430Z,79.50
2022-09-14T01:32:40.529Z,79.44
2022-09-14T01:37:52.547Z,79.56
2022-09-14T01:43:12.075Z,79.64
2022-09-14T01:48:24.041Z,79.68
2022-09-14T01:53:38.382Z,79.81
2022-09-14T01:58:50.829Z,79.93
2022-09-14T02:04:02.994Z,80.12
2022-09-14T02:09:09.551Z,80.14
2022-09-14T02:14:16.801Z,79.64
2022-09-14T02:19:25.750Z,80.15
2022-09-14T02:24:33.841Z,80.30
2022-09-14T02:29:41.649Z,80.34
2022-09-14T02:35:00.861Z,80.43
2022-09-14T02:40:18.554Z,80.56
2022-09-14T02:45:32.437Z,80.62
2022-09-14T02:50:49.297Z,80.65
2022-09-14T02:56:02.099Z,80.76
2022-09-14T03:01:10.979Z,80.73
2022-09-14T03:06:18.703Z,80.69
2022-09-14T03:11:26.262Z,80.63
2022-09-14T03:16:33.291Z,80.60
2022-09-14T03:21:41.794Z,80.59
2022-09-14T03:26:52.586Z,80.52
2022-09-14T03:31:59.816Z,80.69
2022-09-14T03:37:07.124Z,80.87
2022-09-14T03:42:14.314Z,80.89
2022-09-14T03:47:21.235Z,80.94
2022-09-14T03:52:28.309Z,81.00
2022-09-14T03:57:35.855Z,81.05
2022-09-14T04:02:43.209Z,81.11
2022-09-14T04:07:50.236Z,81.22
2022-09-14T04:12:57.915Z,81.33
2022-09-14T04:18:05.257Z,81.28
2022-09-14T04:23:12.683Z,81.34
2022-09-14T04:28:21.047Z,81.34
2022-09-14T04:33:31.033Z,81.42
2022-09-14T04:38:39.605Z,81.55
2022-09-14T04:43:47.408Z,81.68
2022-09-14T04:48:54.886Z,81.94
2022-09-14T04:54:02.847Z,82.04
2022-09-14T04:59:10.686Z,82.20
2022-09-14T05:04:17.848Z,82.18
2022-09-14T05:09:25.345Z,82.22
2022-09-14T05:14:32.376Z,82.69
2022-09-14T05:19:39.514Z,83.04
2022-09-14T05:24:46.537Z,83.12
2022-09-14T05:29:53.656Z,83.28
2022-09-14T05:35:00.731Z,83.37
2022-09-14T05:40:09.469Z,83.38
2022-09-14T05:45:16.476Z,83.47
2022-09-14T05:50:23.603Z,83.49
2022-09-14T05:55:30.613Z,83.57
2022-09-14T06:00:37.616Z,83.81
2022-09-14T06:05:44.787Z,83.66
2022-09-14T06:10:52.017Z,83.55
2022-09-14T06:16:02.801Z,83.68
2022-09-14T06:21:11.891Z,83.49
2022-09-14T06:26:21.117Z,83.67
2022-09-14T06:31:29.485Z,83.80
2022-09-14T06:36:36.846Z,83.80
2022-09-14T06:41:44.020Z,83.54
2022-09-14T06:46:59.277Z,83.35
2022-09-14T06:52:06.574Z,83.27
2022-09-14T06:57:13.923Z,83.05
2022-09-14T07:02:21.340Z,82.97
2022-09-14T07:07:28.745Z,82.86
2022-09-14T07:12:36.297Z,82.64
2022-09-14T07:17:46.015Z,82.44
2022-09-14T07:22:52.994Z,82.29
2022-09-14T07:28:01.150Z,81.85
2022-09-14T07:33:09.182Z,81.73
2022-09-14T07:38:26.951Z,81.39
2022-09-14T07:43:43.515Z,81.26
2022-09-14T07:48:56.291Z,81.02
2022-09-14T07:54:04.348Z,80.93
2022-09-14T07:59:35.077Z,80.45
2022-09-14T08:04:43.073Z,80.11
2022-09-14T08:09:50.928Z,79.73
2022-09-14T08:14:58.227Z,79.27
2022-09-14T08:20:07.043Z,78.89
2022-09-14T08:25:14.859Z,78.40
2022-09-14T08:30:22.523Z,78.15
2022-09-14T08:35:53.903Z,77.52
2022-09-14T08:40:57.303Z,76.90
2022-09-14T08:46:07.882Z,76.19
2022-09-14T08:51:15.389Z,75.70
2022-09-14T08:56:27.062Z,75.13
2022-09-14T09:01:46.498Z,74.42
2022-09-14T09:07:00.250Z,73.99
2022-09-14T09:12:09.404Z,73.79
2022-09-14T09:17:21.063Z,73.44
2022-09-14T09:22:31.786Z,73.44
2022-09-14T09:27:39.061Z,73.27
2022-09-14T09:32:46.668Z,73.19
2022-09-14T09:37:53.881Z,73.53
2022-09-14T09:43:13.030Z,73.48
2022-09-14T09:48:24.121Z,73.19
2022-09-14T09:53:31.805Z,72.86
2022-09-14T09:58:40.415Z,73.03
2022-09-14T10:04:01.484Z,73.03
2022-09-14T10:09:17.268Z,73.60
2022-09-14T10:14:28.777Z,73.95
2022-09-14T10:19:37.204Z,73.37
2022-09-14T10:24:53.633Z,72.66
2022-09-14T10:30:02.566Z,72.05
2022-09-14T10:35:17.670Z,71.66
2022-09-14T10:40:34.970Z,71.26
2022-09-14T10:45:49.587Z,71.07
2022-09-14T10:51:16.285Z,70.87
2022-09-14T10:56:28.686Z,70.74
2022-09-14T11:01:54.630Z,70.97
2022-09-14T11:07:10.518Z,70.82
2022-09-14T11:12:24.965Z,70.68
2022-09-14T11:17:58.842Z,70.32
2022-09-14T11:23:22.697Z,70.00
2022-09-14T11:28:36.022Z,69.19
2022-09-14T11:33:49.424Z,68.70
2022-09-14T11:39:06.569Z,68.38
2022-09-14T11:44:21.312Z,67.57
2022-09-14T11:49:40.191Z,66.90
2022-09-14T11:54:47.618Z,66.19
2022-09-14T11:59:57.404Z,65.22
2022-09-14T12:05:41.490Z,65.33
2022-09-14T12:11:05.712Z,65.71
2022-09-14T12:16:13.369Z,65.79
2022-09-14T12:21:26.893Z,65.65
2022-09-14T12:26:36.658Z,65.62
2022-09-14T12:32:26.509Z,65.49
2022-09-14T12:37:36.609Z,64.85
2022-09-14T12:42:44.766Z,64.28
2022-09-14T12:47:55.907Z,63.58
2022-09-14T12:53:34.657Z,62.83
2022-09-14T12:59:10.678Z,62.42
2022-09-14T13:04:26.327Z,62.72
2022-09-14T13:09:35.638Z,62.06
2022-09-14T13:14:55.221Z,61.55
2022-09-14T13:20:05.292Z,61.58
2022-09-14T13:25:33.153Z,61.22
2022-09-14T13:30:40.732Z,61.28
2022-09-14T13:35:52.293Z,61.33
2022-09-14T13:41:06.675Z,61.48
2022-09-14T13:46:19.677Z,61.15
2022-09-14T13:51:31.836Z,60.89
2022-09-14T13:56:39.643Z,60.82
2022-09-14T14:01:52.350Z,61.07
2022-09-14T14:07:21.601Z,61.40
2022-09-14T14:12:31.290Z,61.52
2022-09-14T14:17:40.251Z,61.51
2022-09-14T14:22:59.412Z,61.52
2022-09-14T14:28:16.072Z,61.71
2022-09-14T14:33:23.795Z,61.84
2022-09-14T14:38:30.872Z,61.81
2022-09-14T14:43:38.014Z,61.73
2022-09-14T14:48:45.447Z,61.92
2022-09-14T14:53:52.501Z,62.04
2022-09-14T14:59:02.241Z,62.22
2022-09-14T15:04:09.953Z,62.35
2022-09-14T15:09:20.192Z,62.43
2022-09-14T15:14:28.187Z,62.39
2022-09-14T15:19:35.253Z,62.44
2022-09-14T15:24:42.609Z,62.36
2022-09-14T15:29:49.799Z,62.39
2022-09-14T15:34:56.794Z,62.43
2022-09-14T15:40:04.488Z,62.48
2022-09-14T15:45:13.068Z,62.54
2022-09-14T15:50:21.261Z,62.59
2022-09-14T15:55:28.734Z,62.71
2022-09-14T16:00:36.427Z,62.77
2022-09-14T16:05:43.664Z,62.77
2022-09-14T16:10:58.092Z,62.75
2022-09-14T16:16:10.743Z,62.72
2022-09-14T16:21:20.462Z,62.66
2022-09-14T16:26:29.052Z,62.60
2022-09-14T16:31:37.838Z,62.56
2022-09-14T16:36:45.701Z,62.54
2022-09-14T16:41:52.710Z,62.56
2022-09-14T16:47:00.856Z,62.62
2022-09-14T16:52:08.478Z,62.87
2022-09-14T16:57:15.759Z,62.94
2022-09-14T17:02:23.148Z,62.92
2022-09-14T17:07:30.136Z,62.97
2022-09-14T17:12:37.195Z,63.03
2022-09-14T17:17:44.162Z,63.10
2022-09-14T17:22:51.196Z,63.17
2022-09-14T17:27:58.274Z,63.25
2022-09-14T17:33:05.546Z,63.32
2022-09-14T17:38:12.535Z,63.39
2022-09-14T17:43:21.583Z,63.42
2022-09-14T17:48:29.514Z,63.44
2022-09-14T17:53:40.816Z,63.48
2022-09-14T17:58:48.736Z,63.49
2022-09-14T18:03:58.493Z,63.55
2022-09-14T18:09:08.244Z,63.66
2022-09-14T18:14:16.867Z,63.80
2022-09-14T18:19:24.322Z,63.98
2022-09-14T18:24:31.536Z,64.16
2022-09-14T18:29:38.495Z,64.27
2022-09-14T18:34:45.400Z,64.35
2022-09-14T18:39:52.594Z,64.42
2022-09-14T18:44:59.725Z,64.50
2022-09-14T18:50:08.182Z,64.63
2022-09-14T18:55:15.556Z,64.79
2022-09-14T19:00:22.755Z,64.90
2022-09-14T19:05:32.235Z,64.92
2022-09-14T19:10:41.216Z,64.92
2022-09-14T19:15:48.250Z,64.87
2022-09-14T19:21:06.406Z,64.84
2022-09-14T19:26:15.977Z,64.83
2022-09-14T19:31:25.069Z,64.84
2022-09-14T19:36:34.102Z,64.80
2022-09-14T19:41:41.940Z,64.81
2022-09-14T19:46:49.136Z,64.84
2022-09-14T19:51:57.120Z,64.85
2022-09-14T19:57:04.401Z,64.90
2022-09-14T20:02:12.783Z,64.95
2022-09-14T20:07:20.244Z,65.03
2022-09-14T20:12:27.464Z,65.08
2022-09-14T20:17:34.500Z,65.14
2022-09-14T20:22:42.571Z,65.23
2022-09-14T20:27:50.119Z,65.31
2022-09-14T20:32:57.378Z,65.40
2022-09-14T20:38:05.188Z,65.49
2022-09-14T20:43:12.109Z,65.57
2022-09-14T20:48:18.922Z,65.66
2022-09-14T20:53:27.086Z,65.73
2022-09-14T20:58:34.794Z,65.85
2022-09-14T21:03:43.495Z,65.93
2022-09-14T21:08:51.299Z,66.03
2022-09-14T21:13:59.196Z,66.13
2022-09-14T21:19:08.618Z,66.23
2022-09-14T21:24:17.084Z,66.33
2022-09-14T21:29:25.044Z,66.43
2022-09-14T21:34:32.196Z,66.51
2022-09-14T21:39:40.679Z,66.59
2022-09-14T21:44:48.127Z,66.67
2022-09-14T21:49:55.097Z,66.74
2022-09-14T21:55:02.035Z,66.84
2022-09-14T22:00:13.835Z,66.95
2022-09-14T22:05:21.117Z,67.03
2022-09-14T22:10:28.640Z,67.08
2022-09-14T22:15:38.535Z,67.16
2022-09-14T22:20:45.817Z,67.21
2022-09-14T22:25:53.314Z,67.28
2022-09-14T22:31:00.404Z,67.34
2022-09-14T22:36:08.582Z,67.41
2022-09-14T22:41:17.952Z,67.47
2022-09-14T22:46:25.925Z,67.58
2022-09-14T22:51:33.670Z,67.64
2022-09-14T22:56:42.115Z,67.72
2022-09-14T23:01:49.029Z,67.80
2022-09-14T23:06:56.302Z,67.89
2022-09-14T23:12:03.644Z,67.95
2022-09-14T23:17:10.683Z,68.02
2022-09-14T23:22:18.734Z,68.06
2022-09-14T23:27:25.718Z,68.12
2022-09-14T23:32:32.713Z,68.23
2022-09-14T23:37:39.716Z,68.35
2022-09-14T23:42:47.209Z,68.48
2022-09-14T23:47:54.211Z,68.56
2022-09-14T23:53:01.266Z,68.67
2022-09-14T23:58:08.333Z,68.82
